Roseau, Dominica
Current Conditions -  °F | °C
As of 12:00 PM on Saturday 22 Nov 2014 (Local Time) from TDCF Reporting Station
Rain Showers Rain Showers  
Wind Chill: 84°   Ceiling: 1900
Heat Index: 90°   Visibility: 6mi
Dew Point: 72°   Wind: 1mph
Humidity: 66%   Direction: 130°SE
Pressure: 29.94"   Gusts: NA
Location:  15.3°N, 61.39°W
Report Text: TDCF 221600Z 13001KT 9999 -SHRA SCT015CB BKN01929/22 Q1014
Loading
Personal Weather Stations






























Interactive Weather Map New forecast layout! Learn more

10-Day Weather Forecast

Advertisements
Track Severe Weather on mobile